Time;durP1;ratioP1;P1;durP2;ratioP2;P2;SDS_P1;SDS_P2;PMS_P1;PMS_P2;Temp;Humidity;BMP_temperature;BMP_pressure;BME280_temperature;BME280_humidity;BME280_pressure;Samples;Min_cycle;Max_cycle;Signal;HPM_P1;HPM_P2
2023/09/22 00:01:55;;;;;;;;;1.00;0.00;;;;;;;;5064326;27;46820;-80
2023/09/22 00:04:21;;;;;;;;;0.00;0.00;;;;;;;;5095153;27;45809;-78
2023/09/22 00:06:46;;;;;;;;;0.00;0.00;;;;;;;;5094746;27;45472;-80
2023/09/22 00:09:11;;;;;;;;;0.00;0.00;;;;;;;;5096046;27;45475;-80
2023/09/22 00:11:37;;;;;;;;;0.00;0.00;;;;;;;;5075408;27;47216;-80
2023/09/22 00:14:03;;;;;;;;;0.00;0.00;;;;;;;;5063525;28;45641;-81
2023/09/22 00:16:28;;;;;;;;;1.00;1.00;;;;;;;;5095872;27;44786;-80
2023/09/22 00:18:54;;;;;;;;;0.00;0.00;;;;;;;;5100951;27;45401;-78
2023/09/22 00:21:20;;;;;;;;;0.00;0.00;;;;;;;;5091489;27;47016;-79
2023/09/22 00:23:46;;;;;;;;;0.00;0.00;;;;;;;;5078907;27;45477;-80
2023/09/22 00:26:14;;;;;;;;;0.00;0.00;;;;;;;;5101080;27;45410;-79
2023/09/22 00:28:42;;;;;;;;;1.00;1.00;;;;;;;;5100435;27;45472;-79
2023/09/22 00:31:09;;;;;;;;;0.00;0.00;;;;;;;;5096789;27;45937;-79
2023/09/22 00:33:38;;;;;;;;;0.00;0.00;;;;;;;;5082024;27;45840;-80
2023/09/22 00:36:03;;;;;;;;;0.00;0.00;;;;;;;;5081499;27;45791;-80
2023/09/22 00:38:29;;;;;;;;;0.00;0.00;;;;;;;;5091363;27;45519;-82
2023/09/22 00:40:58;;;;;;;;;0.50;0.00;;;;;;;;5088842;27;45447;-81
2023/09/22 00:43:23;;;;;;;;;1.00;0.00;;;;;;;;5092121;27;45454;-80
2023/09/22 00:45:50;;;;;;;;;0.00;0.00;;;;;;;;5096411;27;45607;-80
2023/09/22 00:48:21;;;;;;;;;4.25;0.00;;;;;;;;5088328;27;45760;-79
2023/09/22 00:50:47;;;;;;;;;0.00;0.00;;;;;;;;5093589;27;45471;-79
2023/09/22 00:53:13;;;;;;;;;0.00;0.00;;;;;;;;5096325;27;45457;-79
2023/09/22 00:55:38;;;;;;;;;1.75;0.75;;;;;;;;5089202;27;45443;-78
2023/09/22 00:58:04;;;;;;;;;0.00;0.00;;;;;;;;5101111;27;45514;-79
2023/09/22 01:00:30;;;;;;;;;0.00;0.00;;;;;;;;5092175;27;46636;-79
2023/09/22 01:02:55;;;;;;;;;0.00;0.00;;;;;;;;5081654;27;45403;-78
2023/09/22 01:05:21;;;;;;;;;0.00;0.00;;;;;;;;5088257;27;45465;-80
2023/09/22 01:07:47;;;;;;;;;1.00;1.00;;;;;;;;5093633;27;45266;-79
2023/09/22 01:10:14;;;;;;;;;0.25;0.00;;;;;;;;5093539;27;46308;-79
2023/09/22 01:12:39;;;;;;;;;0.25;0.00;;;;;;;;5101525;27;45701;-78
2023/09/22 01:15:08;;;;;;;;;1.25;1.25;;;;;;;;5074448;27;45340;-80
2023/09/22 01:17:33;;;;;;;;;0.75;0.50;;;;;;;;5093635;27;45505;-79
2023/09/22 01:19:58;;;;;;;;;0.00;0.00;;;;;;;;5084568;27;45772;-79
2023/09/22 01:22:24;;;;;;;;;0.00;0.00;;;;;;;;5079303;27;45412;-80
2023/09/22 01:24:49;;;;;;;;;0.00;0.00;;;;;;;;5099340;27;45405;-82
2023/09/22 01:27:14;;;;;;;;;0.50;0.50;;;;;;;;5091659;27;45461;-79
2023/09/22 01:29:40;;;;;;;;;1.25;1.25;;;;;;;;5095471;27;45441;-80
2023/09/22 01:32:09;;;;;;;;;1.25;1.00;;;;;;;;5098908;27;45509;-79
2023/09/22 01:34:34;;;;;;;;;0.00;0.00;;;;;;;;5093018;27;45882;-79
2023/09/22 01:37:00;;;;;;;;;0.25;0.25;;;;;;;;5099765;27;45606;-81
2023/09/22 01:39:26;;;;;;;;;0.00;0.00;;;;;;;;5087850;27;46130;-80
2023/09/22 01:41:52;;;;;;;;;1.50;1.00;;;;;;;;5072890;28;45418;-80
2023/09/22 01:44:17;;;;;;;;;0.75;0.75;;;;;;;;5079282;28;45855;-79
2023/09/22 01:46:43;;;;;;;;;1.00;1.00;;;;;;;;5094062;27;45665;-79
2023/09/22 01:49:08;;;;;;;;;5.25;4.50;;;;;;;;5079665;27;48449;-81
2023/09/22 01:51:33;;;;;;;;;2.50;0.00;;;;;;;;5089227;27;45715;-79
2023/09/22 01:53:59;;;;;;;;;0.75;0.00;;;;;;;;5098931;27;45457;-78
2023/09/22 01:56:25;;;;;;;;;0.00;0.00;;;;;;;;5095350;27;45504;-79
2023/09/22 01:58:50;;;;;;;;;1.00;1.00;;;;;;;;5097884;27;45575;-80
2023/09/22 02:01:15;;;;;;;;;0.50;0.50;;;;;;;;5077504;27;45453;-80
2023/09/22 02:03:40;;;;;;;;;0.00;0.00;;;;;;;;5078210;27;45717;-79
2023/09/22 02:06:06;;;;;;;;;1.75;1.25;;;;;;;;5058648;28;45674;-81
2023/09/22 02:08:31;;;;;;;;;2.00;2.00;;;;;;;;5090917;27;45584;-79
2023/09/22 02:10:57;;;;;;;;;0.00;0.00;;;;;;;;5097072;27;45631;-80
2023/09/22 02:13:22;;;;;;;;;0.00;0.00;;;;;;;;5084729;27;45628;-79
2023/09/22 02:15:48;;;;;;;;;2.75;1.00;;;;;;;;5085116;27;45369;-81
2023/09/22 02:18:13;;;;;;;;;2.75;0.00;;;;;;;;5065894;27;46321;-80
2023/09/22 02:20:41;;;;;;;;;2.00;1.00;;;;;;;;5089816;27;45817;-79
2023/09/22 02:23:06;;;;;;;;;2.00;1.00;;;;;;;;5058739;28;45314;-80
2023/09/22 02:25:31;;;;;;;;;1.75;1.75;;;;;;;;5094421;27;45471;-79
2023/09/22 02:27:57;;;;;;;;;2.00;0.00;;;;;;;;5092109;27;44920;-79
2023/09/22 02:30:22;;;;;;;;;2.00;0.75;;;;;;;;5090043;27;45595;-79
2023/09/22 02:32:49;;;;;;;;;1.75;1.75;;;;;;;;5092228;27;45727;-80
2023/09/22 02:35:19;;;;;;;;;1.75;1.25;;;;;;;;5099205;27;45597;-79
2023/09/22 02:37:45;;;;;;;;;0.00;0.00;;;;;;;;5068235;28;47497;-79
2023/09/22 02:40:12;;;;;;;;;0.50;0.50;;;;;;;;5100218;27;45296;-78
2023/09/22 02:42:38;;;;;;;;;2.00;1.00;;;;;;;;5070480;27;45477;-79
2023/09/22 02:45:03;;;;;;;;;4.25;2.25;;;;;;;;5092887;27;45334;-78
2023/09/22 02:47:30;;;;;;;;;0.00;0.00;;;;;;;;5097489;27;45460;-78
2023/09/22 02:49:55;;;;;;;;;0.00;0.00;;;;;;;;5087647;27;44798;-79
2023/09/22 02:52:21;;;;;;;;;3.75;2.00;;;;;;;;5095039;27;45750;-81
2023/09/22 02:54:46;;;;;;;;;2.00;0.00;;;;;;;;5098973;27;44788;-81
2023/09/22 02:57:11;;;;;;;;;1.50;0.50;;;;;;;;5093226;27;45378;-81
2023/09/22 02:59:37;;;;;;;;;0.00;0.00;;;;;;;;5091368;27;45744;-79
2023/09/22 03:02:02;;;;;;;;;1.00;1.00;;;;;;;;5104178;27;45123;-80
2023/09/22 03:04:30;;;;;;;;;0.50;0.00;;;;;;;;5072339;27;45525;-80
2023/09/22 03:07:02;;;;;;;;;1.00;1.00;;;;;;;;5099981;27;46194;-80
2023/09/22 03:09:27;;;;;;;;;1.00;1.00;;;;;;;;5106658;27;45232;-79
2023/09/22 03:11:53;;;;;;;;;4.00;2.00;;;;;;;;5089563;27;45045;-78
2023/09/22 03:14:18;;;;;;;;;0.33;0.00;;;;;;;;5107467;27;44850;-80
2023/09/22 03:16:43;;;;;;;;;1.00;1.00;;;;;;;;5100417;27;44917;-80
2023/09/22 03:19:09;;;;;;;;;0.00;0.00;;;;;;;;5111832;27;45007;-79
2023/09/22 03:21:35;;;;;;;;;0.33;0.00;;;;;;;;5117231;27;45106;-80
2023/09/22 03:24:00;;;;;;;;;1.00;1.00;;;;;;;;5115564;27;45130;-79
2023/09/22 03:26:25;;;;;;;;;0.00;0.00;;;;;;;;5092880;27;47043;-80
2023/09/22 03:28:50;;;;;;;;;0.00;0.00;;;;;;;;5087152;28;45443;-80
2023/09/22 03:31:23;;;;;;;;;1.00;1.00;;;;;;;;5071126;28;45827;-79
2023/09/22 03:33:48;;;;;;;;;1.33;1.33;;;;;;;;5077977;28;44795;-79
2023/09/22 03:36:14;;;;;;;;;2.33;1.00;;;;;;;;5067431;28;45994;-80
2023/09/22 03:38:52;;;;;;;;;1.00;0.00;;;;;;;;5070362;28;45801;-80
2023/09/22 03:41:18;;;;;;;;;0.67;0.67;;;;;;;;5062559;28;46645;-80
2023/09/22 03:43:43;;;;;;;;;2.00;0.67;;;;;;;;5069905;27;45478;-80
2023/09/22 03:46:10;;;;;;;;;1.00;0.00;;;;;;;;5073113;27;45474;-81
2023/09/22 03:48:35;;;;;;;;;2.00;1.00;;;;;;;;5073442;28;45483;-80
2023/09/22 03:51:01;;;;;;;;;0.00;0.00;;;;;;;;5067798;28;45758;-80
2023/09/22 03:53:27;;;;;;;;;2.00;0.67;;;;;;;;5072789;28;45987;-79
2023/09/22 03:55:52;;;;;;;;;1.00;1.00;;;;;;;;5073263;27;46333;-78
2023/09/22 03:58:19;;;;;;;;;1.25;0.00;;;;;;;;5080737;28;45276;-79
2023/09/22 04:00:44;;;;;;;;;2.00;0.67;;;;;;;;5077746;27;44778;-79
2023/09/22 04:03:10;;;;;;;;;1.00;1.00;;;;;;;;5064494;28;45738;-80
2023/09/22 04:05:39;;;;;;;;;0.33;0.33;;;;;;;;5065867;28;45914;-81
2023/09/22 04:08:05;;;;;;;;;2.00;0.33;;;;;;;;5073786;28;45454;-81
2023/09/22 04:10:30;;;;;;;;;2.00;2.00;;;;;;;;5073282;27;45511;-79
2023/09/22 04:12:55;;;;;;;;;3.00;2.00;;;;;;;;5080159;28;45433;-79
2023/09/22 04:15:23;;;;;;;;;0.67;0.67;;;;;;;;5070244;27;45492;-79
2023/09/22 04:17:51;;;;;;;;;1.00;1.00;;;;;;;;5072169;27;45513;-79
2023/09/22 04:20:26;;;;;;;;;0.00;0.00;;;;;;;;5061890;28;45919;-78
2023/09/22 04:22:53;;;;;;;;;2.00;0.00;;;;;;;;5066560;28;46903;-79
2023/09/22 04:25:19;;;;;;;;;0.33;0.00;;;;;;;;5080009;28;46553;-79
2023/09/22 04:27:46;;;;;;;;;1.67;1.00;;;;;;;;5073213;28;45397;-79
2023/09/22 04:30:15;;;;;;;;;0.75;0.00;;;;;;;;5086049;27;45784;-80
2023/09/22 04:32:43;;;;;;;;;2.67;2.00;;;;;;;;5081823;28;45599;-80
2023/09/22 04:35:09;;;;;;;;;2.00;1.33;;;;;;;;5089621;27;45421;-79
2023/09/22 04:37:34;;;;;;;;;3.00;3.00;;;;;;;;5057423;28;45541;-80
2023/09/22 04:39:59;;;;;;;;;5.33;3.00;;;;;;;;5072595;28;46168;-80
2023/09/22 04:42:25;;;;;;;;;6.00;3.33;;;;;;;;5075104;27;45423;-78
2023/09/22 04:44:54;;;;;;;;;4.00;1.00;;;;;;;;5075133;27;45400;-81
2023/09/22 04:47:19;;;;;;;;;1.00;1.00;;;;;;;;5073738;27;45362;-81
2023/09/22 04:49:45;;;;;;;;;2.67;1.33;;;;;;;;5078402;27;45945;-80
2023/09/22 04:52:10;;;;;;;;;3.33;3.33;;;;;;;;5072996;27;45586;-80
2023/09/22 04:54:37;;;;;;;;;3.00;2.00;;;;;;;;5068952;27;45324;-79
2023/09/22 04:57:02;;;;;;;;;1.67;1.00;;;;;;;;5066970;27;45338;-79
2023/09/22 04:59:28;;;;;;;;;2.00;2.00;;;;;;;;5069426;27;45838;-80
2023/09/22 05:01:54;;;;;;;;;2.67;2.67;;;;;;;;5080528;27;45425;-79
2023/09/22 05:04:19;;;;;;;;;2.00;2.00;;;;;;;;5057225;28;47733;-79
2023/09/22 05:06:45;;;;;;;;;2.00;1.00;;;;;;;;5074104;27;45746;-80
2023/09/22 05:09:11;;;;;;;;;5.67;2.33;;;;;;;;5062981;28;45561;-80
2023/09/22 05:11:36;;;;;;;;;2.00;2.00;;;;;;;;5074095;28;45449;-80
2023/09/22 05:14:03;;;;;;;;;2.33;2.33;;;;;;;;5080103;27;45672;-81
2023/09/22 05:16:29;;;;;;;;;2.67;2.00;;;;;;;;5074098;28;45390;-80
2023/09/22 05:18:54;;;;;;;;;4.00;2.00;;;;;;;;5070184;27;45370;-82
2023/09/22 05:21:20;;;;;;;;;3.00;3.00;;;;;;;;5099197;27;45415;-79
2023/09/22 05:23:46;;;;;;;;;3.00;1.33;;;;;;;;5075728;27;45331;-80
2023/09/22 05:26:12;;;;;;;;;3.33;2.00;;;;;;;;5071992;27;45663;-83
2023/09/22 05:28:37;;;;;;;;;3.33;2.33;;;;;;;;5082806;27;45831;-82
2023/09/22 05:31:06;;;;;;;;;1.00;1.00;;;;;;;;5086659;27;45472;-81
2023/09/22 05:33:33;;;;;;;;;1.00;1.00;;;;;;;;5076596;27;46607;-79
2023/09/22 05:35:58;;;;;;;;;2.00;2.00;;;;;;;;5083478;27;45524;-80
2023/09/22 05:38:23;;;;;;;;;3.50;2.75;;;;;;;;5096228;27;45403;-81
2023/09/22 05:40:58;;;;;;;;;2.00;2.00;;;;;;;;5103786;27;45331;-83
2023/09/22 05:44:00;;;;;;;;;1.67;1.00;;;;;;;;5094931;27;45361;-87
2023/09/22 05:46:50;;;;;;;;;0.33;0.33;;;;;;;;5060246;27;45566;-87
2023/09/22 05:49:32;;;;;;;;;3.33;1.33;;;;;;;;5078917;27;45367;-83
2023/09/22 05:52:23;;;;;;;;;2.25;2.25;;;;;;;;5095586;27;45425;-84
2023/09/22 05:55:27;;;;;;;;;;;;;;;;;;;;;
2023/09/22 05:57:53;;;;;;;;;3.00;1.00;;;;;;;;5083747;27;72278;-84
2023/09/22 06:00:19;;;;;;;;;4.00;1.33;;;;;;;;5086972;27;45436;-84
2023/09/22 06:02:58;;;;;;;;;2.00;2.00;;;;;;;;5094527;27;44927;-84
2023/09/22 06:05:32;;;;;;;;;2.00;1.00;;;;;;;;5084046;27;46945;-86
2023/09/22 06:08:01;;;;;;;;;1.33;1.00;;;;;;;;5091089;27;45493;-87
2023/09/22 06:13:36;;;;;;;;;4.33;2.00;;;;;;;;5093870;27;45201;-85
2023/09/22 06:16:02;;;;;;;;;2.00;2.00;;;;;;;;5100893;27;45626;-84
2023/09/22 06:18:28;;;;;;;;;2.33;1.33;;;;;;;;5083347;27;45837;-82
2023/09/22 06:20:55;;;;;;;;;2.00;1.00;;;;;;;;5092859;27;45752;-78
2023/09/22 06:23:21;;;;;;;;;3.00;1.25;;;;;;;;5062708;27;45953;-79
2023/09/22 06:25:46;;;;;;;;;2.00;2.00;;;;;;;;5090317;27;46487;-80
2023/09/22 06:28:14;;;;;;;;;2.00;1.00;;;;;;;;5072486;27;45383;-80
2023/09/22 06:30:42;;;;;;;;;2.33;2.33;;;;;;;;5050595;28;45517;-82
2023/09/22 06:33:07;;;;;;;;;3.00;1.00;;;;;;;;5066919;28;45691;-79
2023/09/22 06:35:33;;;;;;;;;1.25;1.25;;;;;;;;5052066;28;46666;-82
2023/09/22 06:37:58;;;;;;;;;1.00;1.00;;;;;;;;5064415;28;45513;-81
2023/09/22 06:40:24;;;;;;;;;2.67;0.67;;;;;;;;5071857;28;45617;-80
2023/09/22 06:42:49;;;;;;;;;2.50;1.00;;;;;;;;5044852;28;47250;-80
2023/09/22 06:45:16;;;;;;;;;2.00;1.00;;;;;;;;5054481;28;48146;-79
2023/09/22 06:47:41;;;;;;;;;2.00;1.00;;;;;;;;5074239;28;45898;-80
2023/09/22 06:50:08;;;;;;;;;1.67;0.00;;;;;;;;5079762;28;45917;-79
2023/09/22 06:52:33;;;;;;;;;0.67;0.67;;;;;;;;5067133;27;45447;-77
2023/09/22 06:55:00;;;;;;;;;0.75;0.00;;;;;;;;5070156;28;45439;-77
2023/09/22 06:57:52;;;;;;;;;0.00;0.00;;;;;;;;5078821;28;45679;-79
2023/09/22 07:00:24;;;;;;;;;0.00;0.00;;;;;;;;5074326;28;45932;-78
2023/09/22 07:02:52;;;;;;;;;0.67;0.67;;;;;;;;5078599;28;45542;-79
2023/09/22 07:05:19;;;;;;;;;0.67;0.00;;;;;;;;5077177;28;45837;-76
2023/09/22 07:07:45;;;;;;;;;1.00;0.67;;;;;;;;5074986;28;45732;-79
2023/09/22 07:10:10;;;;;;;;;0.67;0.67;;;;;;;;5085152;27;44831;-85
2023/09/22 07:12:39;;;;;;;;;0.00;0.00;;;;;;;;5094411;28;44889;-85
2023/09/22 07:15:06;;;;;;;;;1.00;1.00;;;;;;;;5078879;28;45074;-83
2023/09/22 07:17:31;;;;;;;;;1.33;0.67;;;;;;;;5065749;28;46024;-86
2023/09/22 07:19:57;;;;;;;;;2.00;1.00;;;;;;;;5075044;28;45222;-84
2023/09/22 07:22:22;;;;;;;;;3.00;1.00;;;;;;;;5064279;28;45682;-86
2023/09/22 07:24:53;;;;;;;;;2.00;2.00;;;;;;;;5070731;28;47196;-85
2023/09/22 07:27:20;;;;;;;;;3.67;1.00;;;;;;;;5068646;28;45418;-87
2023/09/22 07:29:50;;;;;;;;;3.00;1.33;;;;;;;;5082716;27;45363;-86
2023/09/22 07:32:15;;;;;;;;;0.67;0.67;;;;;;;;5087943;28;45331;-86
2023/09/22 07:34:45;;;;;;;;;4.33;1.00;;;;;;;;5082871;28;45450;-86
2023/09/22 07:37:11;;;;;;;;;0.67;0.00;;;;;;;;5075933;28;44824;-87
2023/09/22 07:39:42;;;;;;;;;2.67;2.67;;;;;;;;5078892;28;45166;-85
2023/09/22 07:42:09;;;;;;;;;1.67;0.67;;;;;;;;5073585;28;45462;-84
2023/09/22 07:44:34;;;;;;;;;1.00;1.00;;;;;;;;5065073;27;46214;-86
2023/09/22 07:47:00;;;;;;;;;1.67;1.00;;;;;;;;5093043;27;45481;-86
2023/09/22 07:49:26;;;;;;;;;1.50;1.00;;;;;;;;5086817;28;45447;-85
2023/09/22 07:51:52;;;;;;;;;2.00;1.00;;;;;;;;5079761;28;45706;-83
2023/09/22 07:54:20;;;;;;;;;2.33;2.00;;;;;;;;5069669;28;45443;-84
2023/09/22 07:56:46;;;;;;;;;1.33;1.33;;;;;;;;5070361;28;44817;-82
2023/09/22 07:59:14;;;;;;;;;1.33;1.00;;;;;;;;5087492;28;45317;-85
2023/09/22 08:01:42;;;;;;;;;0.00;0.00;;;;;;;;5094011;28;45505;-84
2023/09/22 08:04:09;;;;;;;;;2.00;2.00;;;;;;;;5098551;27;45473;-85
2023/09/22 08:06:34;;;;;;;;;2.00;1.00;;;;;;;;5089360;28;45520;-84
2023/09/22 08:09:00;;;;;;;;;1.67;1.67;;;;;;;;5078725;28;45467;-84
2023/09/22 08:11:26;;;;;;;;;2.33;1.00;;;;;;;;5081750;28;44847;-82
2023/09/22 08:13:51;;;;;;;;;2.00;1.00;;;;;;;;5091991;27;46883;-85
2023/09/22 08:16:18;;;;;;;;;1.00;0.00;;;;;;;;5088355;28;44803;-84
2023/09/22 08:18:43;;;;;;;;;1.00;1.00;;;;;;;;5070020;28;45453;-83
2023/09/22 08:21:12;;;;;;;;;3.00;1.00;;;;;;;;5091799;28;45371;-87
2023/09/22 08:23:50;;;;;;;;;2.67;1.00;;;;;;;;5076749;28;45482;-85
2023/09/22 08:26:17;;;;;;;;;0.67;0.67;;;;;;;;5076231;28;45470;-84
2023/09/22 08:29:08;;;;;;;;;1.33;1.00;;;;;;;;5087652;27;44860;-85
2023/09/22 08:31:37;;;;;;;;;4.00;4.00;;;;;;;;5081390;27;45272;-85
2023/09/22 08:34:03;;;;;;;;;4.00;3.33;;;;;;;;5081165;27;46618;-83
2023/09/22 08:36:31;;;;;;;;;6.33;5.00;;;;;;;;5089681;27;44704;-84
2023/09/22 08:39:02;;;;;;;;;2.67;2.00;;;;;;;;5101625;27;45366;-84
2023/09/22 08:41:31;;;;;;;;;3.67;2.33;;;;;;;;5075171;28;45223;-84
2023/09/22 08:43:57;;;;;;;;;0.00;0.00;;;;;;;;5090195;28;45372;-83
2023/09/22 08:46:23;;;;;;;;;0.00;0.00;;;;;;;;5082428;28;45480;-83
2023/09/22 08:48:51;;;;;;;;;0.00;0.00;;;;;;;;5092065;28;45454;-84
2023/09/22 08:51:18;;;;;;;;;0.00;0.00;;;;;;;;5087477;28;45508;-83
2023/09/22 08:53:43;;;;;;;;;0.00;0.00;;;;;;;;5076239;27;47810;-85
2023/09/22 08:56:10;;;;;;;;;0.33;0.00;;;;;;;;5089005;28;45180;-84
2023/09/22 08:58:35;;;;;;;;;0.00;0.00;;;;;;;;5088412;28;45429;-83
2023/09/22 09:01:04;;;;;;;;;0.00;0.00;;;;;;;;5071639;28;45920;-85
2023/09/22 09:03:31;;;;;;;;;6.67;6.67;;;;;;;;5078131;27;45385;-84
2023/09/22 09:06:07;;;;;;;;;0.00;0.00;;;;;;;;5077111;28;45637;-82
2023/09/22 09:08:34;;;;;;;;;0.00;0.00;;;;;;;;5073945;28;45647;-84
2023/09/22 09:11:04;;;;;;;;;0.00;0.00;;;;;;;;5081586;27;45771;-85
2023/09/22 09:13:29;;;;;;;;;1.50;0.50;;;;;;;;5081091;28;46692;-84
2023/09/22 09:15:57;;;;;;;;;0.00;0.00;;;;;;;;5080623;28;45132;-82
2023/09/22 09:18:24;;;;;;;;;0.00;0.00;;;;;;;;5077477;27;45411;-82
2023/09/22 09:21:06;;;;;;;;;1.00;1.00;;;;;;;;5072617;28;45320;-83
2023/09/22 09:23:57;;;;;;;;;0.00;0.00;;;;;;;;5060154;28;47201;-82
2023/09/22 09:26:31;;;;;;;;;0.00;0.00;;;;;;;;5072611;28;45464;-84
2023/09/22 09:28:56;;;;;;;;;1.00;0.00;;;;;;;;5071225;27;45917;-85
2023/09/22 09:31:41;;;;;;;;;1.50;1.00;;;;;;;;5072609;27;45334;-81
2023/09/22 09:34:06;;;;;;;;;1.50;1.00;;;;;;;;5076665;28;46446;-82
2023/09/22 09:36:31;;;;;;;;;1.00;0.00;;;;;;;;5086130;27;45693;-83
2023/09/22 09:38:57;;;;;;;;;0.00;0.00;;;;;;;;5068902;27;45591;-82
2023/09/22 09:41:23;;;;;;;;;0.00;0.00;;;;;;;;5088759;27;45572;-82
2023/09/22 09:43:49;;;;;;;;;0.00;0.00;;;;;;;;5078658;28;45719;-82
2023/09/22 09:46:16;;;;;;;;;0.00;0.00;;;;;;;;5063180;28;45470;-85
2023/09/22 09:48:42;;;;;;;;;0.25;0.25;;;;;;;;5063605;28;45726;-84
2023/09/22 09:51:11;;;;;;;;;1.00;1.00;;;;;;;;5069281;28;47041;-86
2023/09/22 09:53:42;;;;;;;;;0.00;0.00;;;;;;;;5068254;28;45825;-84
2023/09/22 09:56:08;;;;;;;;;0.20;0.00;;;;;;;;5079916;28;45474;-86
2023/09/22 09:58:35;;;;;;;;;0.00;0.00;;;;;;;;5092489;28;45661;-89
2023/09/22 10:01:07;;;;;;;;;0.00;0.00;;;;;;;;5080890;28;45889;-82
2023/09/22 10:03:36;;;;;;;;;0.00;0.00;;;;;;;;5068854;28;47329;-81
2023/09/22 10:06:06;;;;;;;;;0.00;0.00;;;;;;;;5077943;27;45765;-79
2023/09/22 10:08:34;;;;;;;;;0.00;0.00;;;;;;;;5064725;28;45545;-83
2023/09/22 10:11:03;;;;;;;;;0.00;0.00;;;;;;;;5077791;27;45699;-83
2023/09/22 10:13:31;;;;;;;;;0.00;0.00;;;;;;;;5070304;27;46910;-80
2023/09/22 10:16:01;;;;;;;;;0.00;0.00;;;;;;;;5065353;27;45644;-86
2023/09/22 10:18:49;;;;;;;;;0.00;0.00;;;;;;;;5073904;27;45692;-81
2023/09/22 10:21:33;;;;;;;;;0.00;0.00;;;;;;;;5067535;28;45882;-82
2023/09/22 10:24:23;;;;;;;;;0.00;0.00;;;;;;;;5060072;27;47269;-83
2023/09/22 10:26:54;;;;;;;;;0.80;0.00;;;;;;;;5060553;27;45565;-81
2023/09/22 10:29:32;;;;;;;;;1.00;0.00;;;;;;;;5063285;27;45627;-77
2023/09/22 10:32:23;;;;;;;;;0.00;0.00;;;;;;;;5067161;27;45687;-78
2023/09/22 10:34:51;;;;;;;;;0.50;0.00;;;;;;;;5054435;27;46586;-86
2023/09/22 10:37:17;;;;;;;;;0.00;0.00;;;;;;;;5069195;27;45567;-81
2023/09/22 10:39:55;;;;;;;;;0.00;0.00;;;;;;;;5078939;27;45418;-75
2023/09/22 10:42:21;;;;;;;;;0.00;0.00;;;;;;;;5053904;28;46555;-75
2023/09/22 10:45:01;;;;;;;;;1.00;0.00;;;;;;;;5072569;27;45696;-74
2023/09/22 10:47:38;;;;;;;;;0.75;0.75;;;;;;;;5062472;28;45675;-77
2023/09/22 10:50:10;;;;;;;;;0.00;0.00;;;;;;;;5049286;27;45769;-78
2023/09/22 10:52:36;;;;;;;;;0.00;0.00;;;;;;;;5061286;27;46092;-77
2023/09/22 10:55:04;;;;;;;;;0.00;0.00;;;;;;;;5044760;27;47096;-79
2023/09/22 10:57:30;;;;;;;;;0.00;0.00;;;;;;;;5060958;28;45630;-77
2023/09/22 10:59:58;;;;;;;;;0.00;0.00;;;;;;;;5069147;28;45769;-78
2023/09/22 11:02:24;;;;;;;;;1.00;0.50;;;;;;;;5057538;27;46190;-78
2023/09/22 11:04:50;;;;;;;;;0.00;0.00;;;;;;;;5066002;27;46382;-78
2023/09/22 11:07:31;;;;;;;;;0.00;0.00;;;;;;;;5076480;27;46189;-78
2023/09/22 11:09:56;;;;;;;;;0.00;0.00;;;;;;;;5088589;27;45370;-78
2023/09/22 11:12:22;;;;;;;;;0.00;0.00;;;;;;;;5056237;28;45944;-78
2023/09/22 11:14:47;;;;;;;;;0.00;0.00;;;;;;;;5077376;28;45405;-78
2023/09/22 11:17:13;;;;;;;;;0.00;0.00;;;;;;;;5077622;28;45857;-78
2023/09/22 11:19:49;;;;;;;;;0.00;0.00;;;;;;;;5088737;27;45787;-78
2023/09/22 11:22:14;;;;;;;;;1.75;0.00;;;;;;;;5074671;28;45745;-77
2023/09/22 11:24:39;;;;;;;;;2.00;0.50;;;;;;;;5063703;28;46656;-77
2023/09/22 11:27:05;;;;;;;;;0.25;0.25;;;;;;;;5073928;27;45379;-77
2023/09/22 11:29:31;;;;;;;;;1.00;0.00;;;;;;;;5083546;27;45584;-78
2023/09/22 11:31:57;;;;;;;;;0.75;0.75;;;;;;;;5072179;27;45983;-77
2023/09/22 11:34:23;;;;;;;;;0.00;0.00;;;;;;;;5069929;27;47324;-76
2023/09/22 11:36:51;;;;;;;;;2.00;2.00;;;;;;;;5075802;27;45427;-77
2023/09/22 11:39:43;;;;;;;;;0.00;0.00;;;;;;;;5086015;27;45633;-79
2023/09/22 11:42:08;;;;;;;;;0.00;0.00;;;;;;;;5074135;27;46172;-77
2023/09/22 11:44:33;;;;;;;;;0.50;0.00;;;;;;;;5066409;27;47307;-77
2023/09/22 11:46:59;;;;;;;;;0.00;0.00;;;;;;;;5061695;27;45695;-79
2023/09/22 11:49:36;;;;;;;;;0.00;0.00;;;;;;;;5081259;27;45749;-77
2023/09/22 11:52:03;;;;;;;;;0.00;0.00;;;;;;;;5066242;27;46558;-79
2023/09/22 11:54:29;;;;;;;;;0.00;0.00;;;;;;;;5082539;27;46655;-74
2023/09/22 11:56:58;;;;;;;;;0.00;0.00;;;;;;;;5080977;27;45879;-82
2023/09/22 12:00:08;;;;;;;;;0.00;0.00;;;;;;;;5082784;27;45837;-81
2023/09/22 12:02:33;;;;;;;;;0.00;0.00;;;;;;;;5084160;27;45870;-79
2023/09/22 12:04:58;;;;;;;;;0.25;0.25;;;;;;;;5066550;27;48029;-79
2023/09/22 12:07:24;;;;;;;;;0.00;0.00;;;;;;;;5080356;27;45768;-80
2023/09/22 12:16:59;;;;;;;;;0.00;0.00;;;;;;;;4957139;28;45756;-83
2023/09/22 12:20:23;;;;;;;;;0.00;0.00;;;;;;;;4988993;28;45666;-85
2023/09/22 12:22:43;;;;;;;;;0.00;0.00;;;;;;;;5009306;27;45547;-81
2023/09/22 12:25:46;;;;;;;;;1.00;0.50;;;;;;;;5078727;27;45893;-83
2023/09/22 12:28:23;;;;;;;;;0.00;0.00;;;;;;;;5080542;27;45616;-80
2023/09/22 12:30:51;;;;;;;;;0.00;0.00;;;;;;;;5099461;27;45465;-81
2023/09/22 12:33:29;;;;;;;;;1.00;0.00;;;;;;;;5101233;27;45591;-81
2023/09/22 12:36:14;;;;;;;;;0.00;0.00;;;;;;;;5087499;27;45771;-80
2023/09/22 12:38:53;;;;;;;;;0.00;0.00;;;;;;;;5106207;27;45698;-82
2023/09/22 12:41:41;;;;;;;;;1.00;0.00;;;;;;;;5075474;27;45488;-83
2023/09/22 12:44:10;;;;;;;;;0.00;0.00;;;;;;;;5079981;27;45604;-81
2023/09/22 12:46:42;;;;;;;;;1.50;0.25;;;;;;;;5090640;27;45995;-80
2023/09/22 12:49:08;;;;;;;;;0.00;0.00;;;;;;;;5064984;27;45991;-80
2023/09/22 12:51:33;;;;;;;;;0.75;0.00;;;;;;;;5100358;27;45575;-82
2023/09/22 12:53:59;;;;;;;;;0.50;0.00;;;;;;;;5086277;27;45461;-81
2023/09/22 12:56:24;;;;;;;;;0.00;0.00;;;;;;;;5070411;27;47008;-82
2023/09/22 12:58:53;;;;;;;;;0.00;0.00;;;;;;;;5082238;27;45665;-81
2023/09/22 13:01:27;;;;;;;;;0.75;0.00;;;;;;;;5078688;27;45865;-83
2023/09/22 13:03:52;;;;;;;;;0.00;0.00;;;;;;;;5077479;27;45488;-82
2023/09/22 13:06:29;;;;;;;;;1.00;1.00;;;;;;;;5077845;27;46507;-82
2023/09/22 13:08:55;;;;;;;;;0.00;0.00;;;;;;;;5072702;27;48037;-81
2023/09/22 13:11:53;;;;;;;;;0.00;0.00;;;;;;;;5063350;27;45627;-82
2023/09/22 13:14:34;;;;;;;;;0.00;0.00;;;;;;;;5079753;27;45559;-81
2023/09/22 13:17:37;;;;;;;;;0.00;0.00;;;;;;;;5057803;27;45756;-81
2023/09/22 13:20:31;;;;;;;;;0.00;0.00;;;;;;;;5081127;27;46091;-81
2023/09/22 13:26:03;;;;;;;;;0.00;0.00;;;;;;;;5083878;27;45476;-80
2023/09/22 13:28:37;;;;;;;;;0.00;0.00;;;;;;;;5087508;27;45652;-80
2023/09/22 13:31:05;;;;;;;;;0.00;0.00;;;;;;;;5072355;27;45926;-82
2023/09/22 13:36:30;;;;;;;;;0.00;0.00;;;;;;;;5078513;27;45615;-83
2023/09/22 13:39:03;;;;;;;;;0.00;0.00;;;;;;;;5070967;27;46051;-80
2023/09/22 13:41:33;;;;;;;;;0.00;0.00;;;;;;;;5077823;27;46764;-80
2023/09/22 13:44:01;;;;;;;;;0.00;0.00;;;;;;;;5064807;27;45203;-80
2023/09/22 13:46:32;;;;;;;;;1.00;0.00;;;;;;;;5086398;27;45315;-81
2023/09/22 13:49:21;;;;;;;;;2.50;0.00;;;;;;;;5092846;27;45539;-80
2023/09/22 13:51:47;;;;;;;;;0.00;0.00;;;;;;;;5086831;27;45979;-80
2023/09/22 13:54:15;;;;;;;;;0.00;0.00;;;;;;;;5055846;27;45556;-80
2023/09/22 13:56:46;;;;;;;;;0.00;0.00;;;;;;;;5091828;27;45714;-80
2023/09/22 13:59:31;;;;;;;;;0.00;0.00;;;;;;;;5085160;27;45651;-81
2023/09/22 14:02:03;;;;;;;;;0.00;0.00;;;;;;;;5084682;27;45805;-83
2023/09/22 14:04:47;;;;;;;;;0.00;0.00;;;;;;;;5065804;27;45357;-82
2023/09/22 14:13:52;;;;;;;;;0.00;0.00;;;;;;;;4992887;28;46020;-83
2023/09/22 14:16:26;;;;;;;;;0.75;0.00;;;;;;;;4984163;28;45454;-83
2023/09/22 14:19:19;;;;;;;;;0.00;0.00;;;;;;;;5028077;28;45748;-83
2023/09/22 14:22:09;;;;;;;;;;;;;;;;;;;;;
2023/09/22 14:24:49;;;;;;;;;;;;;;;;;;;;;
2023/09/22 14:27:36;;;;;;;;;1.75;0.75;;;;;;;;5098174;27;73007;-84
2023/09/22 14:30:44;;;;;;;;;1.50;0.00;;;;;;;;5097772;27;45559;-82
2023/09/22 14:33:10;;;;;;;;;1.00;0.00;;;;;;;;5064538;27;45523;-81
2023/09/22 14:35:35;;;;;;;;;0.00;0.00;;;;;;;;5091964;27;45772;-81
2023/09/22 14:38:04;;;;;;;;;0.00;0.00;;;;;;;;5095879;27;45611;-81
2023/09/22 14:40:32;;;;;;;;;0.00;0.00;;;;;;;;5074542;27;45949;-81
2023/09/22 14:42:59;;;;;;;;;0.00;0.00;;;;;;;;5074163;27;45437;-84
2023/09/22 14:45:28;;;;;;;;;0.00;0.00;;;;;;;;5091630;27;46197;-83
2023/09/22 14:48:10;;;;;;;;;0.00;0.00;;;;;;;;5066810;28;45545;-83
2023/09/22 14:50:52;;;;;;;;;0.00;0.00;;;;;;;;5065427;27;45628;-82
2023/09/22 14:53:24;;;;;;;;;0.00;0.00;;;;;;;;5076383;27;45550;-82
2023/09/22 14:55:54;;;;;;;;;0.00;0.00;;;;;;;;5092111;27;45816;-82
2023/09/22 14:58:23;;;;;;;;;0.00;0.00;;;;;;;;5075120;27;45960;-82
2023/09/22 15:00:52;;;;;;;;;0.00;0.00;;;;;;;;5097778;27;45860;-81
2023/09/22 15:03:17;;;;;;;;;0.00;0.00;;;;;;;;5077322;27;45601;-82
2023/09/22 15:05:43;;;;;;;;;0.00;0.00;;;;;;;;5092722;27;45599;-81
2023/09/22 15:08:10;;;;;;;;;0.00;0.00;;;;;;;;5096856;27;45905;-82
2023/09/22 15:10:53;;;;;;;;;1.00;1.00;;;;;;;;5070022;28;45376;-82
2023/09/22 15:13:48;;;;;;;;;2.00;0.50;;;;;;;;5061199;27;45515;-82
2023/09/22 15:19:33;;;;;;;;;;;;;;;;;;;;;
2023/09/22 15:22:08;;;;;;;;;0.00;0.00;;;;;;;;5006419;28;69478;-82
2023/09/22 15:24:45;;;;;;;;;0.00;0.00;;;;;;;;4979289;28;45634;-83
2023/09/22 15:27:33;;;;;;;;;0.00;0.00;;;;;;;;5058154;27;45575;-83